Time;durP1;ratioP1;P1;durP2;ratioP2;P2;SDS_P1;SDS_P2;PMS_P1;PMS_P2;Temp;Humidity;BMP_temperature;BMP_pressure;BME280_temperature;BME280_humidity;BME280_pressure;Samples;Min_cycle;Max_cycle;Signal;HPM_P1;HPM_P2
2024/01/27 00:01:14;;;;;;;;;;;4.50;99.90;;;;;;5030128;28;19925;-70
2024/01/27 00:03:39;;;;;;;;;;;4.50;99.90;;;;;;5031275;28;20380;-70
2024/01/27 00:06:05;;;;;;;;;;;4.90;99.90;;;;;;5030877;28;19925;-70
2024/01/27 00:08:31;;;;;;;;;;;4.50;99.90;;;;;;5030318;28;19932;-70
2024/01/27 00:10:56;;;;;;;;;;;4.50;99.90;;;;;;5031215;28;19925;-70
2024/01/27 00:13:21;;;;;;;;;;;4.50;99.90;;;;;;5030767;28;19935;-70
2024/01/27 00:15:47;;;;;;;;;;;4.50;99.90;;;;;;5010795;28;19948;-70
2024/01/27 00:18:13;;;;;;;;;;;4.40;99.90;;;;;;5011302;28;19925;-70
2024/01/27 00:20:38;;;;;;;;;;;4.70;99.90;;;;;;5011599;28;20395;-70
2024/01/27 00:23:04;;;;;;;;;;;4.40;99.90;;;;;;5020515;28;20373;-70
2024/01/27 00:25:29;;;;;;;;;;;4.40;99.90;;;;;;5031147;28;20377;-70
2024/01/27 00:27:55;;;;;;;;;;;4.40;99.90;;;;;;5030805;28;19925;-70
2024/01/27 00:30:20;;;;;;;;;;;4.40;99.90;;;;;;5029410;28;19975;-70
2024/01/27 00:32:46;;;;;;;;;;;4.40;99.90;;;;;;5031182;28;19925;-70
2024/01/27 00:35:14;;;;;;;;;;;4.40;99.90;;;;;;5030849;28;19936;-69
2024/01/27 00:37:40;;;;;;;;;;;4.30;99.90;;;;;;5049771;28;19925;-70
2024/01/27 00:40:09;;;;;;;;;;;4.30;99.90;;;;;;5054318;28;20433;-70
2024/01/27 00:42:35;;;;;;;;;;;4.30;99.90;;;;;;5034167;28;19925;-70
2024/01/27 00:45:00;;;;;;;;;;;4.30;99.90;;;;;;5034179;28;20291;-70
2024/01/27 00:47:26;;;;;;;;;;;4.30;99.90;;;;;;5034548;28;20003;-69
2024/01/27 00:49:53;;;;;;;;;;;4.30;99.90;;;;;;5033873;28;19984;-70
2024/01/27 00:52:19;;;;;;;;;;;4.90;99.90;;;;;;5018337;28;19932;-70
2024/01/27 00:54:44;;;;;;;;;;;4.30;99.90;;;;;;5014961;28;20300;-70
2024/01/27 00:57:10;;;;;;;;;;;4.30;99.90;;;;;;5013657;28;19978;-70
2024/01/27 00:59:36;;;;;;;;;;;4.50;99.90;;;;;;5014528;28;20011;-70
2024/01/27 01:02:02;;;;;;;;;;;4.30;99.90;;;;;;5014092;28;20029;-70
2024/01/27 01:04:27;;;;;;;;;;;4.40;99.90;;;;;;5013718;28;19926;-70
2024/01/27 01:06:53;;;;;;;;;;;4.40;99.90;;;;;;5014345;28;20016;-70
2024/01/27 01:09:18;;;;;;;;;;;5.20;99.90;;;;;;5013762;28;19965;-70
2024/01/27 01:11:44;;;;;;;;;;;4.50;99.90;;;;;;5013804;28;20016;-69
2024/01/27 01:14:09;;;;;;;;;;;4.50;99.90;;;;;;5014000;28;19926;-70
2024/01/27 01:16:35;;;;;;;;;;;4.50;99.90;;;;;;5014223;28;19925;-70
2024/01/27 01:19:00;;;;;;;;;;;4.70;99.90;;;;;;5013097;28;19967;-70
2024/01/27 01:21:29;;;;;;;;;;;5.30;99.90;;;;;;5014155;28;19925;-71
2024/01/27 01:23:55;;;;;;;;;;;4.50;99.90;;;;;;5015441;28;19925;-70
2024/01/27 01:26:20;;;;;;;;;;;4.70;99.90;;;;;;5012794;28;19945;-70
2024/01/27 01:28:46;;;;;;;;;;;4.40;99.90;;;;;;5013811;28;19969;-70
2024/01/27 01:31:11;;;;;;;;;;;4.50;99.90;;;;;;5013713;28;19937;-70
2024/01/27 01:33:39;;;;;;;;;;;4.50;99.90;;;;;;5014455;28;19926;-70
2024/01/27 01:36:05;;;;;;;;;;;4.40;99.90;;;;;;5013318;28;19979;-70
2024/01/27 01:38:30;;;;;;;;;;;4.40;99.90;;;;;;5013796;28;19926;-69
2024/01/27 01:40:56;;;;;;;;;;;4.40;99.90;;;;;;5013993;28;20004;-70
2024/01/27 01:43:21;;;;;;;;;;;4.40;99.90;;;;;;5013761;28;19937;-70
2024/01/27 01:45:47;;;;;;;;;;;4.90;99.90;;;;;;5012961;28;20572;-70
2024/01/27 01:48:13;;;;;;;;;;;4.30;99.90;;;;;;5011914;28;19926;-69
2024/01/27 01:50:38;;;;;;;;;;;4.40;99.90;;;;;;5013517;28;19988;-70
2024/01/27 01:53:05;;;;;;;;;;;4.30;99.90;;;;;;5012596;28;20296;-69
2024/01/27 01:55:31;;;;;;;;;;;4.30;99.90;;;;;;5013467;28;19933;-70
2024/01/27 01:57:56;;;;;;;;;;;4.20;99.90;;;;;;5030321;28;19929;-70
2024/01/27 02:00:22;;;;;;;;;;;4.20;99.90;;;;;;5032073;28;19929;-70
2024/01/27 02:02:47;;;;;;;;;;;4.10;99.90;;;;;;5032951;28;19931;-70
2024/01/27 02:05:14;;;;;;;;;;;4.00;99.90;;;;;;5033020;28;20332;-70
2024/01/27 02:07:39;;;;;;;;;;;4.00;99.90;;;;;;5032147;28;19975;-70
2024/01/27 02:10:06;;;;;;;;;;;3.80;99.90;;;;;;5027161;28;19925;-70
2024/01/27 02:12:31;;;;;;;;;;;3.80;99.90;;;;;;5013109;28;19980;-70
2024/01/27 02:14:57;;;;;;;;;;;3.80;99.90;;;;;;5012714;28;19926;-70
2024/01/27 02:17:22;;;;;;;;;;;4.20;99.90;;;;;;5013067;28;20369;-70
2024/01/27 02:19:48;;;;;;;;;;;3.60;99.90;;;;;;5013131;28;19930;-70
2024/01/27 02:22:16;;;;;;;;;;;3.60;99.90;;;;;;5011673;28;19926;-70
2024/01/27 02:24:46;;;;;;;;;;;3.60;99.90;;;;;;5015440;28;19936;-70
2024/01/27 02:27:12;;;;;;;;;;;3.50;99.90;;;;;;5032134;28;20036;-70
2024/01/27 02:29:43;;;;;;;;;;;3.50;99.90;;;;;;5032098;28;20432;-70
2024/01/27 02:32:09;;;;;;;;;;;3.50;99.90;;;;;;5032013;28;19925;-70
2024/01/27 02:34:34;;;;;;;;;;;3.70;99.90;;;;;;5032668;28;20338;-70
2024/01/27 02:37:00;;;;;;;;;;;3.70;99.90;;;;;;5029835;28;19948;-70
2024/01/27 02:39:28;;;;;;;;;;;3.70;99.90;;;;;;5026126;28;19955;-70
2024/01/27 02:41:54;;;;;;;;;;;3.80;99.90;;;;;;5015765;28;20004;-70
2024/01/27 02:44:19;;;;;;;;;;;3.80;99.90;;;;;;5032162;28;20373;-70
2024/01/27 02:46:45;;;;;;;;;;;3.90;99.90;;;;;;5032379;28;20253;-70
2024/01/27 02:49:10;;;;;;;;;;;5.00;99.90;;;;;;5031200;28;19936;-70
2024/01/27 02:51:36;;;;;;;;;;;4.00;99.90;;;;;;5032324;28;19928;-70
2024/01/27 02:54:01;;;;;;;;;;;3.90;99.90;;;;;;5031738;28;20365;-70
2024/01/27 02:56:27;;;;;;;;;;;4.00;99.90;;;;;;5031688;28;19925;-69
2024/01/27 02:58:53;;;;;;;;;;;4.00;99.90;;;;;;5032842;28;19925;-69
2024/01/27 03:01:18;;;;;;;;;;;4.00;99.90;;;;;;5029972;28;19929;-69
2024/01/27 03:03:44;;;;;;;;;;;4.10;99.90;;;;;;5022832;28;19925;-70
2024/01/27 03:06:09;;;;;;;;;;;4.10;99.90;;;;;;5011899;28;19932;-69
2024/01/27 03:08:38;;;;;;;;;;;4.10;99.90;;;;;;5011990;28;19925;-70
2024/01/27 03:11:03;;;;;;;;;;;4.10;99.90;;;;;;5011181;28;19936;-70
2024/01/27 03:13:35;;;;;;;;;;;4.10;99.90;;;;;;5012056;28;19925;-70
2024/01/27 03:16:00;;;;;;;;;;;4.10;99.90;;;;;;5013492;28;19972;-70
2024/01/27 03:18:26;;;;;;;;;;;4.20;99.90;;;;;;5030796;28;19928;-69
2024/01/27 03:20:51;;;;;;;;;;;4.10;99.90;;;;;;5031971;28;19929;-70
2024/01/27 03:23:17;;;;;;;;;;;4.10;99.90;;;;;;5031655;28;19929;-69
2024/01/27 03:25:43;;;;;;;;;;;4.00;99.90;;;;;;5030693;28;19967;-69
2024/01/27 03:28:08;;;;;;;;;;;3.90;99.90;;;;;;5031352;28;19980;-70
2024/01/27 03:30:34;;;;;;;;;;;3.90;99.90;;;;;;5031452;28;19925;-69
2024/01/27 03:32:59;;;;;;;;;;;3.90;99.90;;;;;;5030342;28;19925;-70
2024/01/27 03:35:25;;;;;;;;;;;4.40;99.90;;;;;;5031902;28;20011;-69
2024/01/27 03:37:51;;;;;;;;;;;3.70;99.90;;;;;;5031817;28;20018;-69
2024/01/27 03:40:17;;;;;;;;;;;3.70;99.90;;;;;;5028275;28;19925;-69
2024/01/27 03:42:42;;;;;;;;;;;3.60;99.90;;;;;;5032553;28;19925;-69
2024/01/27 03:45:08;;;;;;;;;;;3.50;99.90;;;;;;5031960;28;20340;-70
2024/01/27 03:47:33;;;;;;;;;;;3.50;99.90;;;;;;5031376;28;19925;-69
2024/01/27 03:49:59;;;;;;;;;;;3.40;99.90;;;;;;5030490;28;19925;-70
2024/01/27 03:52:24;;;;;;;;;;;3.40;99.90;;;;;;5031069;28;19975;-70
2024/01/27 03:54:50;;;;;;;;;;;3.40;99.90;;;;;;5031328;28;19928;-69
2024/01/27 03:57:16;;;;;;;;;;;3.20;99.90;;;;;;5031226;28;19925;-70
2024/01/27 03:59:41;;;;;;;;;;;3.20;99.90;;;;;;5031606;28;20376;-70
2024/01/27 04:02:07;;;;;;;;;;;3.30;99.90;;;;;;5031151;28;19957;-71
2024/01/27 04:04:33;;;;;;;;;;;3.30;99.90;;;;;;5031491;28;19925;-70
2024/01/27 04:06:58;;;;;;;;;;;3.20;99.90;;;;;;5030576;28;19932;-69
2024/01/27 04:09:24;;;;;;;;;;;3.20;99.90;;;;;;5029567;28;19968;-69
2024/01/27 04:11:49;;;;;;;;;;;3.20;99.90;;;;;;5032404;28;19967;-70
2024/01/27 04:14:15;;;;;;;;;;;3.30;99.90;;;;;;5033805;28;19932;-69
2024/01/27 04:16:41;;;;;;;;;;;3.00;99.90;;;;;;5036313;28;20400;-69
2024/01/27 04:19:06;;;;;;;;;;;2.80;99.90;;;;;;5033028;28;19971;-69
2024/01/27 04:21:32;;;;;;;;;;;2.70;99.90;;;;;;5034119;28;20014;-69
2024/01/27 04:23:57;;;;;;;;;;;2.70;99.90;;;;;;5034824;28;19925;-69
2024/01/27 04:26:23;;;;;;;;;;;2.70;99.90;;;;;;5034833;28;19991;-70
2024/01/27 04:28:48;;;;;;;;;;;2.60;99.90;;;;;;5033683;28;20380;-69
2024/01/27 04:31:14;;;;;;;;;;;2.60;99.90;;;;;;5034708;28;19956;-69
2024/01/27 04:33:39;;;;;;;;;;;2.60;99.90;;;;;;5032986;28;19925;-69
2024/01/27 04:36:06;;;;;;;;;;;2.70;99.90;;;;;;5024697;28;19929;-69
2024/01/27 04:38:32;;;;;;;;;;;2.60;99.90;;;;;;5033425;28;19936;-70
2024/01/27 04:41:00;;;;;;;;;;;2.50;99.90;;;;;;5034555;28;19960;-70
2024/01/27 04:43:26;;;;;;;;;;;2.40;99.90;;;;;;5034173;28;20404;-69
2024/01/27 04:45:51;;;;;;;;;;;2.40;99.90;;;;;;5016762;28;20377;-69
2024/01/27 04:48:17;;;;;;;;;;;2.30;99.90;;;;;;5014318;28;20013;-69
2024/01/27 04:50:43;;;;;;;;;;;2.20;99.90;;;;;;5014041;28;20292;-70
2024/01/27 04:53:08;;;;;;;;;;;2.10;99.90;;;;;;5015579;28;20278;-70
2024/01/27 04:55:34;;;;;;;;;;;2.10;99.90;;;;;;5020175;28;19925;-70
2024/01/27 04:57:59;;;;;;;;;;;2.20;99.90;;;;;;5034347;28;19932;-70
2024/01/27 05:00:27;;;;;;;;;;;2.10;99.90;;;;;;5034507;28;20357;-69
2024/01/27 05:02:52;;;;;;;;;;;2.10;99.90;;;;;;5032624;28;19940;-70
2024/01/27 05:05:20;;;;;;;;;;;2.10;99.90;;;;;;5025875;28;20338;-70
2024/01/27 05:07:47;;;;;;;;;;;2.10;99.90;;;;;;5014408;28;20015;-70
2024/01/27 05:10:14;;;;;;;;;;;2.10;99.90;;;;;;5013526;28;19929;-69
2024/01/27 05:12:40;;;;;;;;;;;2.50;99.90;;;;;;5016266;28;20389;-70
2024/01/27 05:15:06;;;;;;;;;;;2.60;99.90;;;;;;5033617;28;19932;-69
2024/01/27 05:17:34;;;;;;;;;;;2.10;99.90;;;;;;5033577;28;19928;-70
2024/01/27 05:20:00;;;;;;;;;;;2.10;99.90;;;;;;5033683;28;20410;-70
2024/01/27 05:22:25;;;;;;;;;;;2.20;99.90;;;;;;5033766;28;19925;-69
2024/01/27 05:24:51;;;;;;;;;;;2.20;99.90;;;;;;5033406;28;19940;-69
2024/01/27 05:27:16;;;;;;;;;;;2.10;99.90;;;;;;5033680;28;20059;-69
2024/01/27 05:29:42;;;;;;;;;;;2.20;99.90;;;;;;5031958;28;19929;-70
2024/01/27 05:32:07;;;;;;;;;;;2.20;99.90;;;;;;5032923;28;19925;-70
2024/01/27 05:34:33;;;;;;;;;;;2.20;99.90;;;;;;5033597;28;19939;-69
2024/01/27 05:36:58;;;;;;;;;;;2.30;99.90;;;;;;5030618;28;19926;-70
2024/01/27 05:39:24;;;;;;;;;;;2.40;99.90;;;;;;5013046;28;19932;-70
2024/01/27 05:41:49;;;;;;;;;;;2.30;99.90;;;;;;5013494;28;19988;-70
2024/01/27 05:44:15;;;;;;;;;;;2.40;99.90;;;;;;5013440;28;19934;-69
2024/01/27 05:46:40;;;;;;;;;;;2.50;99.90;;;;;;5012868;28;19922;-70
2024/01/27 05:49:06;;;;;;;;;;;2.50;99.90;;;;;;5013186;28;19932;-70
2024/01/27 05:51:31;;;;;;;;;;;2.50;99.90;;;;;;5013584;28;20285;-70
2024/01/27 05:53:57;;;;;;;;;;;2.50;99.90;;;;;;5031319;28;20015;-70
2024/01/27 05:56:22;;;;;;;;;;;2.50;99.90;;;;;;5032703;28;19925;-70
2024/01/27 05:58:48;;;;;;;;;;;2.40;99.90;;;;;;5033764;28;19937;-70
2024/01/27 06:01:14;;;;;;;;;;;2.40;99.90;;;;;;5032144;28;19925;-70
2024/01/27 06:03:43;;;;;;;;;;;2.90;99.90;;;;;;5033459;28;20401;-69
2024/01/27 06:06:08;;;;;;;;;;;2.40;99.90;;;;;;5031917;28;19925;-70
2024/01/27 06:08:34;;;;;;;;;;;2.40;99.90;;;;;;5033230;28;19987;-70
2024/01/27 06:10:59;;;;;;;;;;;2.40;99.90;;;;;;5023981;28;19925;-70
2024/01/27 06:13:25;;;;;;;;;;;2.40;99.90;;;;;;5014003;28;20331;-70
2024/01/27 06:15:51;;;;;;;;;;;2.40;99.90;;;;;;5012995;28;20008;-70
2024/01/27 06:18:16;;;;;;;;;;;2.40;99.90;;;;;;5012772;28;19984;-70
2024/01/27 06:20:42;;;;;;;;;;;2.40;99.90;;;;;;5013058;28;19933;-70
2024/01/27 06:23:08;;;;;;;;;;;2.30;99.90;;;;;;5012586;28;19929;-69
2024/01/27 06:25:33;;;;;;;;;;;2.30;99.90;;;;;;5016596;28;20274;-70
2024/01/27 06:27:59;;;;;;;;;;;2.20;99.90;;;;;;5012316;28;19926;-70
2024/01/27 06:30:24;;;;;;;;;;;2.10;99.90;;;;;;5012934;28;19948;-70
2024/01/27 06:32:50;;;;;;;;;;;2.00;99.90;;;;;;5012922;28;20443;-70
2024/01/27 06:35:18;;;;;;;;;;;1.90;99.90;;;;;;5012232;28;19925;-70
2024/01/27 06:37:44;;;;;;;;;;;1.90;99.90;;;;;;5031403;28;19925;-70
2024/01/27 06:40:09;;;;;;;;;;;1.80;99.90;;;;;;5030129;28;19932;-70
2024/01/27 06:42:35;;;;;;;;;;;1.70;99.90;;;;;;5030907;28;19925;-70
2024/01/27 06:45:01;;;;;;;;;;;1.70;99.90;;;;;;5033204;28;20301;-70
2024/01/27 06:47:26;;;;;;;;;;;1.70;99.90;;;;;;5032569;28;20015;-70
2024/01/27 06:49:52;;;;;;;;;;;1.70;99.90;;;;;;5031466;28;19999;-69
2024/01/27 06:52:17;;;;;;;;;;;1.80;99.90;;;;;;5016308;28;19980;-70
2024/01/27 06:54:44;;;;;;;;;;;1.70;99.90;;;;;;5029193;28;19925;-70
2024/01/27 06:57:22;;;;;;;;;;;1.60;99.90;;;;;;5030962;28;19972;-70
2024/01/27 06:59:55;;;;;;;;;;;1.60;99.90;;;;;;5032173;28;19968;-70
2024/01/27 07:02:26;;;;;;;;;;;1.60;99.90;;;;;;5014248;28;19932;-70
2024/01/27 07:04:51;;;;;;;;;;;1.50;99.90;;;;;;5012652;28;19972;-69
2024/01/27 07:07:17;;;;;;;;;;;1.50;99.90;;;;;;5011733;28;19988;-69
2024/01/27 07:09:43;;;;;;;;;;;1.50;99.90;;;;;;5011397;28;19925;-70
2024/01/27 07:12:14;;;;;;;;;;;1.50;99.90;;;;;;5011817;28;19926;-70
2024/01/27 07:14:43;;;;;;;;;;;1.40;99.90;;;;;;5012384;28;19926;-70
2024/01/27 07:17:08;;;;;;;;;;;1.30;99.90;;;;;;5010870;28;19931;-70
2024/01/27 07:19:34;;;;;;;;;;;1.40;99.90;;;;;;5011709;28;19925;-70
2024/01/27 07:22:03;;;;;;;;;;;1.40;99.90;;;;;;5024131;28;19952;-70
2024/01/27 07:24:29;;;;;;;;;;;1.40;99.90;;;;;;5030664;28;19929;-69
2024/01/27 07:26:55;;;;;;;;;;;1.40;99.90;;;;;;5020954;28;19932;-70
2024/01/27 07:29:20;;;;;;;;;;;1.40;99.90;;;;;;5011365;28;19926;-70
2024/01/27 07:31:46;;;;;;;;;;;1.40;99.90;;;;;;5010965;28;19925;-70
2024/01/27 07:34:11;;;;;;;;;;;1.40;99.90;;;;;;5010963;28;19936;-70
2024/01/27 07:36:37;;;;;;;;;;;1.40;99.90;;;;;;5020679;28;19929;-70
2024/01/27 07:39:04;;;;;;;;;;;1.70;99.90;;;;;;5030530;28;19937;-69
2024/01/27 07:41:30;;;;;;;;;;;1.50;99.90;;;;;;5031433;28;19935;-70
2024/01/27 07:43:56;;;;;;;;;;;1.50;99.90;;;;;;5032713;28;20015;-70
2024/01/27 07:46:22;;;;;;;;;;;1.50;99.90;;;;;;5036620;28;20019;-70
2024/01/27 07:48:48;;;;;;;;;;;1.70;99.90;;;;;;5028099;28;19944;-70
2024/01/27 07:51:14;;;;;;;;;;;1.70;99.90;;;;;;5019947;28;19925;-70
2024/01/27 07:53:40;;;;;;;;;;;1.80;99.90;;;;;;5025605;28;19978;-71
2024/01/27 07:56:06;;;;;;;;;;;1.90;99.90;;;;;;5035005;28;19925;-71
2024/01/27 07:58:31;;;;;;;;;;;2.00;99.90;;;;;;5034755;28;19927;-70
2024/01/27 08:00:57;;;;;;;;;;;2.10;99.90;;;;;;5033695;28;19925;-72
2024/01/27 08:03:23;;;;;;;;;;;2.20;99.90;;;;;;5034747;28;19925;-74
2024/01/27 08:05:48;;;;;;;;;;;2.20;99.90;;;;;;5033938;28;19921;-71
2024/01/27 08:08:14;;;;;;;;;;;2.20;99.90;;;;;;5022503;28;19999;-71
2024/01/27 08:10:40;;;;;;;;;;;2.30;99.90;;;;;;5019676;28;19937;-73
2024/01/27 08:13:06;;;;;;;;;;;2.40;99.90;;;;;;5019101;28;19932;-73
2024/01/27 08:15:32;;;;;;;;;;;2.40;99.90;;;;;;5015701;28;19930;-72
2024/01/27 08:17:57;;;;;;;;;;;2.50;99.90;;;;;;5015375;28;19922;-72
2024/01/27 08:20:23;;;;;;;;;;;2.50;99.90;;;;;;5015350;28;20464;-73
2024/01/27 08:22:51;;;;;;;;;;;2.60;99.90;;;;;;5016087;28;20024;-72
2024/01/27 08:25:17;;;;;;;;;;;2.90;99.90;;;;;;5014787;28;19975;-73
2024/01/27 08:27:43;;;;;;;;;;;2.70;99.90;;;;;;5014625;28;19932;-73
2024/01/27 08:30:09;;;;;;;;;;;2.70;99.90;;;;;;5015748;28;20302;-73
2024/01/27 08:32:35;;;;;;;;;;;2.80;99.90;;;;;;5012452;28;19929;-73
2024/01/27 08:35:00;;;;;;;;;;;3.50;99.90;;;;;;5013295;28;19926;-73
2024/01/27 08:37:30;;;;;;;;;;;3.00;99.90;;;;;;5030511;28;19925;-72
2024/01/27 08:39:55;;;;;;;;;;;3.00;99.90;;;;;;5033384;28;19929;-72
2024/01/27 08:42:21;;;;;;;;;;;3.40;99.90;;;;;;5032469;28;20290;-73
2024/01/27 08:44:49;;;;;;;;;;;3.80;99.90;;;;;;5029431;28;19931;-72
2024/01/27 08:47:14;;;;;;;;;;;4.10;99.90;;;;;;5027967;28;19925;-72
2024/01/27 08:49:41;;;;;;;;;;;4.60;99.90;;;;;;5032650;28;19926;-74
2024/01/27 08:52:09;;;;;;;;;;;5.30;99.90;;;;;;5033320;28;19987;-74
2024/01/27 08:54:34;;;;;;;;;;;7.10;99.90;;;;;;5031618;28;19968;-75
2024/01/27 08:57:00;;;;;;;;;;;7.70;99.90;;;;;;5032007;28;19972;-74
2024/01/27 08:59:28;;;;;;;;;;;8.50;99.90;;;;;;5040189;28;20008;-73
2024/01/27 09:01:57;;;;;;;;;;;8.60;99.90;;;;;;5032535;28;19933;-81
2024/01/27 09:04:25;;;;;;;;;;;9.00;99.90;;;;;;5033563;28;19936;-69
2024/01/27 09:06:50;;;;;;;;;;;9.30;99.90;;;;;;5020861;28;19933;-72
2024/01/27 09:09:16;;;;;;;;;;;9.90;99.90;;;;;;5026753;28;20514;-79
2024/01/27 09:11:42;;;;;;;;;;;10.50;99.90;;;;;;5025300;28;19935;-78
2024/01/27 09:14:07;;;;;;;;;;;11.10;99.90;;;;;;5024571;28;20649;-81
2024/01/27 09:16:34;;;;;;;;;;;11.50;99.90;;;;;;5020671;28;19979;-81
2024/01/27 09:19:00;;;;;;;;;;;11.50;99.90;;;;;;5032472;28;19932;-85
2024/01/27 09:21:28;;;;;;;;;;;12.20;99.90;;;;;;5019025;28;20377;-80
2024/01/27 09:23:54;;;;;;;;;;;12.80;99.90;;;;;;5030557;28;19925;-76
2024/01/27 09:26:19;;;;;;;;;;;13.00;99.90;;;;;;5019876;28;20277;-75
2024/01/27 09:28:53;;;;;;;;;;;12.90;99.90;;;;;;5024989;28;19979;-79
2024/01/27 09:31:23;;;;;;;;;;;13.20;99.90;;;;;;5024637;28;19994;-78
2024/01/27 09:33:52;;;;;;;;;;;13.60;99.90;;;;;;5027021;28;19932;-81
2024/01/27 09:36:18;;;;;;;;;;;13.80;99.90;;;;;;5016805;28;20378;-77
2024/01/27 09:38:44;;;;;;;;;;;13.70;99.90;;;;;;5028756;28;19925;-78
2024/01/27 09:41:12;;;;;;;;;;;13.80;99.90;;;;;;5026523;28;19925;-75
2024/01/27 09:43:37;;;;;;;;;;;14.50;99.90;;;;;;5021240;28;20266;-75
2024/01/27 09:46:03;;;;;;;;;;;15.10;99.90;;;;;;5027765;28;19936;-74
2024/01/27 09:48:29;;;;;;;;;;;15.00;99.90;;;;;;5027182;28;19940;-73
2024/01/27 09:50:55;;;;;;;;;;;15.00;99.90;;;;;;5024053;28;19949;-74
2024/01/27 09:53:21;;;;;;;;;;;15.30;99.90;;;;;;5025116;28;19972;-74
2024/01/27 09:55:47;;;;;;;;;;;15.70;99.90;;;;;;5023785;28;19929;-74
2024/01/27 09:58:15;;;;;;;;;;;15.70;99.90;;;;;;5018487;28;19929;-76
2024/01/27 10:00:41;;;;;;;;;;;15.80;99.90;;;;;;5029059;28;20272;-74
2024/01/27 10:03:07;;;;;;;;;;;16.00;99.90;;;;;;5023072;28;19926;-73
2024/01/27 10:05:33;;;;;;;;;;;16.30;99.90;;;;;;5027671;28;20358;-73
2024/01/27 10:07:59;;;;;;;;;;;16.30;99.90;;;;;;5022624;28;20328;-72
2024/01/27 10:10:24;;;;;;;;;;;16.70;99.90;;;;;;5018277;28;19926;-74
2024/01/27 10:12:53;;;;;;;;;;;17.40;99.30;;;;;;5018750;28;19971;-73
2024/01/27 10:15:22;;;;;;;;;;;17.90;98.40;;;;;;5021688;28;19980;-73
2024/01/27 10:17:48;;;;;;;;;;;17.50;99.30;;;;;;5023279;28;19975;-72
2024/01/27 10:20:15;;;;;;;;;;;17.00;98.70;;;;;;5042660;28;20311;-72
2024/01/27 10:22:41;;;;;;;;;;;17.20;97.90;;;;;;5016454;28;19925;-70
2024/01/27 10:25:08;;;;;;;;;;;17.30;98.10;;;;;;5018110;28;19984;-71
2024/01/27 10:27:33;;;;;;;;;;;17.10;98.60;;;;;;5030531;28;19991;-71
2024/01/27 10:29:59;;;;;;;;;;;17.50;98.90;;;;;;5038182;28;20400;-72
2024/01/27 10:32:24;;;;;;;;;;;17.60;97.50;;;;;;5023997;28;19929;-75
2024/01/27 10:35:01;;;;;;;;;;;17.20;98.40;;;;;;5016606;28;19964;-72
2024/01/27 10:37:26;;;;;;;;;;;17.40;99.00;;;;;;5022614;28;19925;-72
2024/01/27 10:40:08;;;;;;;;;;;17.40;98.30;;;;;;5031035;28;19936;-73
2024/01/27 10:42:37;;;;;;;;;;;17.90;97.80;;;;;;5033962;28;19925;-74
2024/01/27 10:45:03;;;;;;;;;;;18.20;97.50;;;;;;5022179;28;19990;-71
2024/01/27 10:47:32;;;;;;;;;;;18.00;97.20;;;;;;5030624;28;20538;-73
2024/01/27 10:49:59;;;;;;;;;;;17.70;97.70;;;;;;5018249;28;19925;-73
2024/01/27 10:52:28;;;;;;;;;;;17.90;97.50;;;;;;5028679;28;19925;-74
2024/01/27 10:55:00;;;;;;;;;;;18.60;96.80;;;;;;5016858;28;20019;-72
2024/01/27 10:57:26;;;;;;;;;;;18.60;96.60;;;;;;5029979;28;19929;-70
2024/01/27 10:59:53;;;;;;;;;;;18.00;97.70;;;;;;5030677;28;19935;-70
2024/01/27 11:02:22;;;;;;;;;;;17.90;98.00;;;;;;5013243;28;19937;-70
2024/01/27 11:04:48;;;;;;;;;;;18.70;96.20;;;;;;5023875;28;19969;-72
2024/01/27 11:07:13;;;;;;;;;;;18.10;96.80;;;;;;5025212;28;20049;-72
2024/01/27 11:09:39;;;;;;;;;;;18.20;96.80;;;;;;5017694;28;19926;-73
2024/01/27 11:12:06;;;;;;;;;;;18.60;97.10;;;;;;5026003;28;19929;-75
2024/01/27 11:14:31;;;;;;;;;;;18.50;96.40;;;;;;5014338;28;19933;-79
2024/01/27 11:16:57;;;;;;;;;;;18.40;96.60;;;;;;5021713;28;19925;-73
2024/01/27 11:19:23;;;;;;;;;;;18.50;96.80;;;;;;5016720;28;19927;-73
2024/01/27 11:21:58;;;;;;;;;;;19.30;96.30;;;;;;5024484;28;20016;-73
2024/01/27 11:24:24;;;;;;;;;;;19.70;95.20;;;;;;5027388;28;19925;-73
2024/01/27 11:26:59;;;;;;;;;;;19.70;94.70;;;;;;5012526;28;20369;-74
2024/01/27 11:29:26;;;;;;;;;;;19.10;96.20;;;;;;5019966;28;19932;-77
2024/01/27 11:31:52;;;;;;;;;;;19.30;96.10;;;;;;5027952;28;19925;-75
2024/01/27 11:34:19;;;;;;;;;;;19.40;96.30;;;;;;5029424;28;20329;-77
2024/01/27 11:36:44;;;;;;;;;;;19.40;95.40;;;;;;5026945;28;19979;-77
2024/01/27 11:39:26;;;;;;;;;;;19.40;95.40;;;;;;5026932;28;19929;-78
2024/01/27 11:41:52;;;;;;;;;;;19.10;95.30;;;;;;5016888;28;20293;-78
2024/01/27 11:44:18;;;;;;;;;;;19.30;95.60;;;;;;5027976;28;19932;-77
2024/01/27 11:46:44;;;;;;;;;;;18.70;95.30;;;;;;5028400;28;19925;-77
2024/01/27 11:49:14;;;;;;;;;;;18.40;95.60;;;;;;5028846;28;19921;-72
2024/01/27 11:51:39;;;;;;;;;;;18.50;96.30;;;;;;5026364;28;19933;-73
2024/01/27 11:54:05;;;;;;;;;;;18.80;95.70;;;;;;5029764;28;19925;-73
2024/01/27 11:56:31;;;;;;;;;;;18.20;96.00;;;;;;5025816;28;19934;-75
2024/01/27 11:58:56;;;;;;;;;;;18.10;96.40;;;;;;5026834;28;19925;-75
2024/01/27 12:01:22;;;;;;;;;;;18.50;96.10;;;;;;5020816;28;19937;-73
2024/01/27 12:03:48;;;;;;;;;;;19.00;95.30;;;;;;5024310;28;19925;-73
2024/01/27 12:06:14;;;;;;;;;;;18.70;95.40;;;;;;5028799;28;19925;-73
2024/01/27 12:08:46;;;;;;;;;;;18.80;95.30;;;;;;5015775;28;19937;-73
2024/01/27 12:11:21;;;;;;;;;;;18.90;95.50;;;;;;5027241;28;19932;-73
2024/01/27 12:13:46;;;;;;;;;;;18.50;96.20;;;;;;5030113;28;20012;-73
2024/01/27 12:16:12;;;;;;;;;;;18.60;96.70;;;;;;5015572;28;20008;-75
2024/01/27 12:18:41;;;;;;;;;;;18.00;96.60;;;;;;5026096;28;19936;-76
2024/01/27 12:21:06;;;;;;;;;;;18.30;95.40;;;;;;5018675;28;20280;-75
2024/01/27 12:23:32;;;;;;;;;;;18.00;96.70;;;;;;5019585;28;20401;-75
2024/01/27 12:25:57;;;;;;;;;;;18.50;96.10;;;;;;5021533;28;19921;-75
2024/01/27 12:28:26;;;;;;;;;;;18.10;96.60;;;;;;5022418;28;20324;-75
2024/01/27 12:30:52;;;;;;;;;;;17.80;96.40;;;;;;5016556;28;19983;-76
2024/01/27 12:33:25;;;;;;;;;;;17.50;97.50;;;;;;5022212;28;19933;-76
2024/01/27 12:35:51;;;;;;;;;;;17.70;97.30;;;;;;5025236;28;19981;-75
2024/01/27 12:38:20;;;;;;;;;;;17.60;96.90;;;;;;5026359;28;19955;-76
2024/01/27 12:40:45;;;;;;;;;;;17.80;96.70;;;;;;5033590;28;19922;-76
2024/01/27 12:43:11;;;;;;;;;;;17.30;96.80;;;;;;5025391;28;19975;-76
2024/01/27 12:45:37;;;;;;;;;;;16.60;97.30;;;;;;5026132;28;19997;-76
2024/01/27 12:48:05;;;;;;;;;;;16.30;98.30;;;;;;5017481;28;20028;-75
2024/01/27 12:50:30;;;;;;;;;;;16.20;98.70;;;;;;5030929;28;19941;-76
2024/01/27 12:52:56;;;;;;;;;;;16.60;98.80;;;;;;5022052;28;20273;-76
2024/01/27 12:55:22;;;;;;;;;;;17.00;98.00;;;;;;5024113;28;19932;-75
2024/01/27 12:57:47;;;;;;;;;;;16.10;98.40;;;;;;5018571;28;19926;-74
2024/01/27 13:00:14;;;;;;;;;;;16.60;98.70;;;;;;5031333;28;20296;-75
2024/01/27 13:02:40;;;;;;;;;;;15.60;99.00;;;;;;5014984;28;19932;-74
2024/01/27 13:05:06;;;;;;;;;;;15.20;99.30;;;;;;5020027;28;19921;-75
2024/01/27 13:07:31;;;;;;;;;;;15.40;99.60;;;;;;5032917;28;19926;-74
2024/01/27 13:10:03;;;;;;;;;;;15.50;99.60;;;;;;5033320;28;20015;-74
2024/01/27 13:12:31;;;;;;;;;;;15.30;99.90;;;;;;5016639;28;19921;-74
2024/01/27 13:14:57;;;;;;;;;;;15.10;99.60;;;;;;5029528;28;19925;-74
2024/01/27 13:17:22;;;;;;;;;;;14.70;99.90;;;;;;5033683;28;20035;-74
2024/01/27 13:19:48;;;;;;;;;;;14.10;99.90;;;;;;5030454;28;20019;-76
2024/01/27 13:22:13;;;;;;;;;;;14.10;99.90;;;;;;5016260;28;20312;-73
2024/01/27 13:24:39;;;;;;;;;;;14.30;99.90;;;;;;5029269;28;19931;-72
2024/01/27 13:27:05;;;;;;;;;;;14.20;99.90;;;;;;5020977;28;19979;-72
2024/01/27 13:29:32;;;;;;;;;;;13.90;99.90;;;;;;5026075;28;19932;-76
2024/01/27 13:32:01;;;;;;;;;;;13.50;99.90;;;;;;5023606;28;19960;-75
2024/01/27 13:34:27;;;;;;;;;;;13.00;99.90;;;;;;5012090;28;19926;-73
2024/01/27 13:36:53;;;;;;;;;;;12.90;99.90;;;;;;5029239;28;19944;-75
2024/01/27 13:39:19;;;;;;;;;;;12.40;99.90;;;;;;5023924;28;20027;-77
2024/01/27 13:41:47;;;;;;;;;;;12.00;99.90;;;;;;5055992;28;19975;-74
2024/01/27 13:44:12;;;;;;;;;;;12.00;99.90;;;;;;5053946;28;19929;-74
2024/01/27 13:46:38;;;;;;;;;;;11.60;99.90;;;;;;5025085;28;19995;-77
2024/01/27 13:49:06;;;;;;;;;;;11.30;99.90;;;;;;5023987;28;19952;-75
2024/01/27 13:51:35;;;;;;;;;;;10.80;99.90;;;;;;5025467;28;19933;-75
2024/01/27 13:54:00;;;;;;;;;;;10.70;99.90;;;;;;5051299;28;19932;-75
2024/01/27 13:56:29;;;;;;;;;;;11.20;99.90;;;;;;5022035;28;20309;-74
2024/01/27 13:58:54;;;;;;;;;;;10.30;99.90;;;;;;5023669;28;19932;-73
2024/01/27 14:01:20;;;;;;;;;;;11.00;99.90;;;;;;5025736;28;19925;-72
2024/01/27 14:03:45;;;;;;;;;;;10.30;99.90;;;;;;5023634;28;19940;-71
2024/01/27 14:06:12;;;;;;;;;;;10.20;99.90;;;;;;5017392;28;19926;-71
2024/01/27 14:08:39;;;;;;;;;;;10.30;99.90;;;;;;5030726;28;19932;-71
2024/01/27 14:11:04;;;;;;;;;;;10.20;99.90;;;;;;5032489;28;19929;-71
2024/01/27 14:13:30;;;;;;;;;;;10.70;99.90;;;;;;5032032;28;20399;-71
2024/01/27 14:15:55;;;;;;;;;;;10.10;99.90;;;;;;5015938;28;19929;-71
2024/01/27 14:18:21;;;;;;;;;;;10.20;99.90;;;;;;5013480;28;19980;-71
2024/01/27 14:20:47;;;;;;;;;;;9.70;99.90;;;;;;5023870;28;19925;-73